createdAt,value
2023-03-21T00:01:55.699Z,10.05
2023-03-21T00:04:25.447Z,10.03
2023-03-21T00:06:54.611Z,10.03
2023-03-21T00:09:24.246Z,10.02
2023-03-21T00:11:52.934Z,10.03
2023-03-21T00:14:23.583Z,10.01
2023-03-21T00:16:53.753Z,10.01
2023-03-21T00:19:25.026Z,9.98
2023-03-21T00:22:07.118Z,9.97
2023-03-21T00:24:37.704Z,9.97
2023-03-21T00:27:30.304Z,9.97
2023-03-21T00:29:57.311Z,9.96
2023-03-21T00:32:27.824Z,9.95
2023-03-21T00:35:16.363Z,9.93
2023-03-21T00:37:46.714Z,9.92
2023-03-21T00:40:25.688Z,9.92
2023-03-21T00:42:57.733Z,9.91
2023-03-21T00:45:28.133Z,9.88
2023-03-21T00:47:58.222Z,9.86
2023-03-21T00:50:27.078Z,9.86
2023-03-21T00:52:56.851Z,9.85
2023-03-21T00:55:27.041Z,9.83
2023-03-21T00:58:02.126Z,9.82
2023-03-21T01:00:32.897Z,9.82
2023-03-21T01:03:21.496Z,9.80
2023-03-21T01:06:07.325Z,9.80
2023-03-21T01:08:52.357Z,9.76
2023-03-21T01:11:23.892Z,9.76
2023-03-21T01:13:59.662Z,9.75
2023-03-21T01:16:33.502Z,9.73
2023-03-21T01:19:06.991Z,9.73
2023-03-21T01:21:36.256Z,9.73
2023-03-21T01:24:05.191Z,9.70
2023-03-21T01:26:34.376Z,9.69
2023-03-21T01:29:03.060Z,9.68
2023-03-21T01:31:31.730Z,9.66
2023-03-21T01:34:00.372Z,9.64
2023-03-21T01:36:30.457Z,9.64
2023-03-21T01:39:04.642Z,9.63
2023-03-21T01:41:42.977Z,9.64
2023-03-21T01:44:20.278Z,9.62
2023-03-21T01:47:03.900Z,9.63
2023-03-21T01:49:48.056Z,9.62
2023-03-21T01:52:36.044Z,9.55
2023-03-21T01:55:12.619Z,9.55
2023-03-21T01:58:05.216Z,9.55
2023-03-21T02:00:43.736Z,9.54
2023-03-21T02:03:36.122Z,9.54
2023-03-21T02:06:31.585Z,9.51
2023-03-21T02:09:11.197Z,9.51
2023-03-21T02:11:40.976Z,9.52
2023-03-21T02:14:26.557Z,9.49
2023-03-21T02:17:09.381Z,9.46
2023-03-21T02:20:25.444Z,9.45
2023-03-21T02:23:20.481Z,9.44
2023-03-21T02:26:03.907Z,9.42
2023-03-21T02:28:35.930Z,9.40
2023-03-21T02:31:20.022Z,9.37
2023-03-21T02:34:22.704Z,9.37
2023-03-21T02:37:13.714Z,9.38
2023-03-21T02:39:49.385Z,9.38
2023-03-21T02:42:22.478Z,9.37
2023-03-21T02:44:58.252Z,9.36
2023-03-21T02:47:31.804Z,9.34
2023-03-21T02:50:05.867Z,9.32
2023-03-21T02:52:39.752Z,9.32
2023-03-21T02:55:15.342Z,9.32
2023-03-21T02:57:56.427Z,9.32
2023-03-21T03:00:28.041Z,9.30
2023-03-21T03:03:08.057Z,9.29
2023-03-21T03:05:42.051Z,9.28
2023-03-21T03:08:38.365Z,9.26
2023-03-21T03:11:21.616Z,9.25
2023-03-21T03:14:21.280Z,9.24
2023-03-21T03:17:00.250Z,9.22
2023-03-21T03:19:32.767Z,9.21
2023-03-21T03:22:07.981Z,9.21
2023-03-21T03:24:43.610Z,9.19
2023-03-21T03:27:15.674Z,9.16
2023-03-21T03:29:47.906Z,9.17
2023-03-21T03:32:25.505Z,9.16
2023-03-21T03:34:56.229Z,9.13
2023-03-21T03:37:32.977Z,9.13
2023-03-21T03:40:06.556Z,9.12
2023-03-21T03:42:36.917Z,9.07
2023-03-21T03:45:35.662Z,9.07
2023-03-21T03:48:07.659Z,9.05
2023-03-21T03:50:43.349Z,9.02
2023-03-21T03:53:21.424Z,9.02
2023-03-21T03:55:55.808Z,9.00
2023-03-21T03:58:39.535Z,9.00
2023-03-21T04:01:12.411Z,8.98
2023-03-21T04:03:49.886Z,8.96
2023-03-21T04:06:22.105Z,8.95
2023-03-21T04:08:52.561Z,8.94
2023-03-21T04:11:22.984Z,8.94
2023-03-21T04:13:54.773Z,8.93
2023-03-21T04:16:26.032Z,8.94
2023-03-21T04:18:54.769Z,8.95
2023-03-21T04:21:23.362Z,8.95
2023-03-21T04:23:54.748Z,8.95
2023-03-21T04:26:25.364Z,8.93
2023-03-21T04:29:13.976Z,8.92
2023-03-21T04:32:01.525Z,8.90
2023-03-21T04:34:30.827Z,8.89
2023-03-21T04:37:10.994Z,8.88
2023-03-21T04:39:42.786Z,8.87
2023-03-21T04:42:14.389Z,8.85
2023-03-21T04:44:43.197Z,8.83
2023-03-21T04:47:13.275Z,8.79
2023-03-21T04:49:41.861Z,8.76
2023-03-21T04:52:12.862Z,8.78
2023-03-21T04:54:41.448Z,8.77
2023-03-21T04:57:10.382Z,8.73
2023-03-21T04:59:40.527Z,8.72
2023-03-21T05:02:09.121Z,8.70
2023-03-21T05:04:37.710Z,8.68
2023-03-21T05:07:06.835Z,8.66
2023-03-21T05:09:35.423Z,8.65
2023-03-21T05:12:04.996Z,8.63
2023-03-21T05:14:35.011Z,8.60
2023-03-21T05:17:05.342Z,8.55
2023-03-21T05:19:36.132Z,8.55
2023-03-21T05:22:08.894Z,8.50
2023-03-21T05:24:39.212Z,8.48
2023-03-21T05:27:10.215Z,8.44
2023-03-21T05:29:44.862Z,8.40
2023-03-21T05:32:15.041Z,8.37
2023-03-21T05:34:43.676Z,8.33
2023-03-21T05:37:12.506Z,8.32
2023-03-21T05:39:48.176Z,8.33
2023-03-21T05:42:24.584Z,8.30
2023-03-21T05:44:53.755Z,8.31
2023-03-21T05:47:29.128Z,8.31
2023-03-21T05:50:00.166Z,8.28
2023-03-21T05:52:29.668Z,8.28
2023-03-21T05:54:58.913Z,8.28
2023-03-21T05:57:29.003Z,8.28
2023-03-21T06:00:04.493Z,8.25
2023-03-21T06:02:45.896Z,8.25
2023-03-21T06:05:34.767Z,8.24
2023-03-21T06:08:03.484Z,8.27
2023-03-21T06:10:32.284Z,8.32
2023-03-21T06:13:05.003Z,8.37
2023-03-21T06:15:35.765Z,8.40
2023-03-21T06:18:16.281Z,8.36
2023-03-21T06:20:57.404Z,8.36
2023-03-21T06:23:26.180Z,8.32
2023-03-21T06:25:55.658Z,8.39
2023-03-21T06:28:26.892Z,8.45
2023-03-21T06:30:55.778Z,8.47
2023-03-21T06:33:28.454Z,8.44
2023-03-21T06:35:58.342Z,8.44
2023-03-21T06:38:27.478Z,8.41
2023-03-21T06:40:56.218Z,8.40
2023-03-21T06:43:27.205Z,8.40
2023-03-21T06:45:56.338Z,8.35
2023-03-21T06:48:25.074Z,8.36
2023-03-21T06:50:56.198Z,8.37
2023-03-21T06:53:28.141Z,8.36
2023-03-21T06:56:19.951Z,8.37
2023-03-21T06:58:50.897Z,8.36
2023-03-21T07:01:34.866Z,8.39
2023-03-21T07:04:07.684Z,8.38
2023-03-21T07:06:38.513Z,8.41
2023-03-21T07:09:07.737Z,8.42
2023-03-21T07:11:37.803Z,8.41
2023-03-21T07:14:10.255Z,8.43
2023-03-21T07:16:39.993Z,8.45
2023-03-21T07:19:08.722Z,8.45
2023-03-21T07:21:38.752Z,8.48
2023-03-21T07:24:07.604Z,8.53
2023-03-21T07:26:37.634Z,8.56
2023-03-21T07:29:07.199Z,8.61
2023-03-21T07:31:36.730Z,8.64
2023-03-21T07:34:06.401Z,8.69
2023-03-21T07:36:35.157Z,8.72
2023-03-21T07:39:05.400Z,8.81
2023-03-21T07:41:34.205Z,8.84
2023-03-21T07:44:14.441Z,8.92
2023-03-21T07:46:43.084Z,8.96
2023-03-21T07:49:11.868Z,9.01
2023-03-21T07:51:40.456Z,9.02
2023-03-21T07:54:11.021Z,9.04
2023-03-21T07:56:39.673Z,9.11
2023-03-21T07:59:08.368Z,9.18
2023-03-21T08:01:37.208Z,9.16
2023-03-21T08:04:08.390Z,9.19
2023-03-21T08:06:37.122Z,9.23
2023-03-21T08:09:06.351Z,9.28
2023-03-21T08:11:36.355Z,9.38
2023-03-21T08:14:05.016Z,9.46
2023-03-21T08:16:34.917Z,9.52
2023-03-21T08:19:03.719Z,9.57
2023-03-21T08:21:32.476Z,9.65
2023-03-21T08:24:01.133Z,9.67
2023-03-21T08:26:29.816Z,9.70
2023-03-21T08:28:59.844Z,9.77
2023-03-21T08:31:28.757Z,9.78
2023-03-21T08:33:57.409Z,9.85
2023-03-21T08:36:26.739Z,9.92
2023-03-21T08:39:04.645Z,9.97
2023-03-21T08:41:33.821Z,10.08
2023-03-21T08:44:04.396Z,10.12
2023-03-21T08:46:33.269Z,10.15
2023-03-21T08:49:02.049Z,10.21
2023-03-21T08:51:31.802Z,10.29
2023-03-21T08:54:00.629Z,10.35
2023-03-21T08:56:29.320Z,10.35
2023-03-21T08:58:59.121Z,10.49
2023-03-21T09:01:29.673Z,10.49
2023-03-21T09:03:58.390Z,10.52
2023-03-21T09:06:27.601Z,10.52
2023-03-21T09:08:56.890Z,10.59
2023-03-21T09:11:25.554Z,10.67
2023-03-21T09:13:54.179Z,10.70
2023-03-21T09:16:24.905Z,10.79
2023-03-21T09:18:56.903Z,10.84
2023-03-21T09:21:25.987Z,10.86
2023-03-21T09:23:58.433Z,11.00
2023-03-21T09:26:28.625Z,11.02
2023-03-21T09:28:58.670Z,11.05
2023-03-21T09:31:28.712Z,11.11
2023-03-21T09:33:59.044Z,11.16
2023-03-21T09:36:28.100Z,11.20
2023-03-21T09:38:59.499Z,11.31
2023-03-21T09:41:39.985Z,11.43
2023-03-21T09:44:17.900Z,11.59
2023-03-21T09:46:52.102Z,11.64
2023-03-21T09:49:25.633Z,11.74
2023-03-21T09:51:55.530Z,11.86
2023-03-21T09:54:27.190Z,11.88
2023-03-21T09:56:58.167Z,11.91
2023-03-21T09:59:33.243Z,11.99
2023-03-21T10:02:03.253Z,12.13
2023-03-21T10:04:33.973Z,12.23
2023-03-21T10:07:04.006Z,12.28
2023-03-21T10:09:33.445Z,12.32
2023-03-21T10:12:05.894Z,12.39
2023-03-21T10:14:37.199Z,12.47
2023-03-21T10:17:15.281Z,12.53
2023-03-21T10:19:46.522Z,12.59
2023-03-21T10:22:15.338Z,12.69
2023-03-21T10:24:43.939Z,12.82
2023-03-21T10:27:14.545Z,12.89
2023-03-21T10:29:46.083Z,13.04
2023-03-21T10:32:16.530Z,13.11
2023-03-21T10:34:49.895Z,13.16
2023-03-21T10:37:18.589Z,13.17
2023-03-21T10:39:49.260Z,13.25
2023-03-21T10:42:22.180Z,13.35
2023-03-21T10:44:52.309Z,13.42
2023-03-21T10:47:26.101Z,13.53
2023-03-21T10:50:07.228Z,13.68
2023-03-21T10:52:38.490Z,13.68
2023-03-21T10:55:10.144Z,13.75
2023-03-21T10:57:39.015Z,13.77
2023-03-21T11:00:16.946Z,13.90
2023-03-21T11:02:50.097Z,13.96
2023-03-21T11:05:23.084Z,14.04
2023-03-21T11:07:59.992Z,14.11
2023-03-21T11:10:31.986Z,14.13
2023-03-21T11:13:05.370Z,14.12
2023-03-21T11:15:39.834Z,14.22
2023-03-21T11:18:17.010Z,14.26
2023-03-21T11:20:52.462Z,14.26
2023-03-21T11:23:22.125Z,14.34
2023-03-21T11:25:51.656Z,14.38
2023-03-21T11:28:22.441Z,14.42
2023-03-21T11:30:53.810Z,14.56
2023-03-21T11:33:23.144Z,14.56
2023-03-21T11:36:07.334Z,14.62
2023-03-21T11:38:39.478Z,14.58
2023-03-21T11:41:08.980Z,14.53
2023-03-21T11:43:38.607Z,14.52
2023-03-21T11:46:09.461Z,14.61
2023-03-21T11:48:41.905Z,14.59
2023-03-21T11:51:21.077Z,14.63
2023-03-21T11:53:54.264Z,14.66
2023-03-21T11:56:28.016Z,14.64
2023-03-21T11:59:19.194Z,14.64
2023-03-21T12:01:57.270Z,14.70
2023-03-21T12:04:44.350Z,14.68
2023-03-21T12:07:35.355Z,14.67
2023-03-21T12:10:21.541Z,14.77
2023-03-21T12:12:57.293Z,14.72
2023-03-21T12:15:31.272Z,14.75
2023-03-21T12:18:04.210Z,14.80
2023-03-21T12:20:40.945Z,14.82
2023-03-21T12:23:25.438Z,14.79
2023-03-21T12:26:07.809Z,14.81
2023-03-21T12:28:40.910Z,14.81
2023-03-21T12:31:13.035Z,14.81
2023-03-21T12:33:58.534Z,14.80
2023-03-21T12:36:39.312Z,14.87
2023-03-21T12:39:17.637Z,14.83
2023-03-21T12:41:51.221Z,14.82
2023-03-21T12:44:22.552Z,14.85
2023-03-21T12:46:55.700Z,14.92
2023-03-21T12:49:27.803Z,14.97
2023-03-21T12:52:00.282Z,14.97
2023-03-21T12:54:34.397Z,15.02
2023-03-21T12:57:07.274Z,15.07
2023-03-21T12:59:39.154Z,15.13
2023-03-21T13:02:19.320Z,15.17
2023-03-21T13:04:53.974Z,15.23
2023-03-21T13:07:25.243Z,15.26
2023-03-21T13:09:56.938Z,15.31
2023-03-21T13:12:39.386Z,15.38
2023-03-21T13:15:35.487Z,15.50
2023-03-21T13:18:14.913Z,15.57
2023-03-21T13:20:46.871Z,15.55
2023-03-21T13:23:15.960Z,15.58
2023-03-21T13:25:48.525Z,15.61
2023-03-21T13:28:22.707Z,15.64
2023-03-21T13:30:52.237Z,15.63
2023-03-21T13:33:25.932Z,15.62
2023-03-21T13:36:05.505Z,15.62
2023-03-21T13:38:36.514Z,15.65
2023-03-21T13:41:10.409Z,15.64
2023-03-21T13:43:45.654Z,15.63
2023-03-21T13:46:15.506Z,15.61
2023-03-21T13:48:59.170Z,15.58
2023-03-21T13:51:45.703Z,15.57
2023-03-21T13:54:29.664Z,15.57
2023-03-21T13:57:02.000Z,15.56
2023-03-21T13:59:44.111Z,15.58
2023-03-21T14:02:34.028Z,15.58
2023-03-21T14:05:06.557Z,15.56
2023-03-21T14:07:38.220Z,15.56
2023-03-21T14:10:09.992Z,15.57
2023-03-21T14:12:42.285Z,15.55
2023-03-21T14:15:17.870Z,15.53
2023-03-21T14:17:52.392Z,15.55
2023-03-21T14:20:23.641Z,15.54
2023-03-21T14:22:52.258Z,15.53
2023-03-21T14:25:24.337Z,15.53
2023-03-21T14:27:56.961Z,15.59
2023-03-21T14:30:27.811Z,15.58
2023-03-21T14:32:57.154Z,15.60
2023-03-21T14:35:26.783Z,15.64
2023-03-21T14:37:56.157Z,15.65
2023-03-21T14:40:27.069Z,15.69
2023-03-21T14:42:57.295Z,15.73
2023-03-21T14:45:28.011Z,15.76
2023-03-21T14:48:01.547Z,15.83
2023-03-21T14:50:36.435Z,15.85
2023-03-21T14:53:04.921Z,15.85
2023-03-21T14:55:33.680Z,15.88
2023-03-21T14:58:06.229Z,15.88
2023-03-21T15:00:36.113Z,15.88
2023-03-21T15:03:05.075Z,15.89
2023-03-21T15:05:37.228Z,15.94
2023-03-21T15:08:14.097Z,15.97
2023-03-21T15:10:43.609Z,16.00
2023-03-21T15:13:19.332Z,16.04
2023-03-21T15:15:48.725Z,16.01
2023-03-21T15:18:21.209Z,16.03
2023-03-21T15:20:51.856Z,16.02
2023-03-21T15:23:27.747Z,16.11
2023-03-21T15:25:56.857Z,16.09
2023-03-21T15:28:27.168Z,16.18
2023-03-21T15:30:56.326Z,16.24
2023-03-21T15:33:26.292Z,16.27
2023-03-21T15:35:56.758Z,16.24
2023-03-21T15:38:31.463Z,16.31
2023-03-21T15:41:16.480Z,16.25
2023-03-21T15:43:46.970Z,16.26
2023-03-21T15:46:18.148Z,16.33
2023-03-21T15:48:47.111Z,16.23
2023-03-21T15:51:22.902Z,16.19
2023-03-21T15:53:55.400Z,16.09
2023-03-21T15:56:25.236Z,16.02
2023-03-21T15:58:55.268Z,15.98
2023-03-21T16:01:26.512Z,15.92
2023-03-21T16:03:58.611Z,15.89
2023-03-21T16:06:34.689Z,15.86
2023-03-21T16:09:10.772Z,15.83
2023-03-21T16:11:41.096Z,15.78
2023-03-21T16:14:11.233Z,15.76
2023-03-21T16:16:40.810Z,15.72
2023-03-21T16:19:09.531Z,15.70
2023-03-21T16:21:39.123Z,15.61
2023-03-21T16:24:10.433Z,15.59
2023-03-21T16:26:43.545Z,15.63
2023-03-21T16:29:14.895Z,15.55
2023-03-21T16:31:43.957Z,15.52
2023-03-21T16:34:12.514Z,15.48
2023-03-21T16:36:43.369Z,15.45
2023-03-21T16:39:21.250Z,15.45
2023-03-21T16:41:50.570Z,15.40
2023-03-21T16:44:20.781Z,15.33
2023-03-21T16:46:49.593Z,15.26
2023-03-21T16:49:21.499Z,15.23
2023-03-21T16:51:50.301Z,15.20
2023-03-21T16:54:18.929Z,15.15
2023-03-21T16:56:50.550Z,15.13
2023-03-21T16:59:20.941Z,15.09
2023-03-21T17:01:49.599Z,15.05
2023-03-21T17:04:19.723Z,15.00
2023-03-21T17:06:50.224Z,14.98
2023-03-21T17:09:21.413Z,14.91
2023-03-21T17:11:50.313Z,14.86
2023-03-21T17:14:21.583Z,14.83
2023-03-21T17:16:50.554Z,14.81
2023-03-21T17:19:20.599Z,14.81
2023-03-21T17:21:49.356Z,14.75
2023-03-21T17:24:17.955Z,14.74
2023-03-21T17:26:46.595Z,14.72
2023-03-21T17:29:16.197Z,14.70
2023-03-21T17:31:48.188Z,14.69
2023-03-21T17:34:16.996Z,14.66
2023-03-21T17:36:47.289Z,14.65
2023-03-21T17:39:18.593Z,14.61
2023-03-21T17:41:47.244Z,14.57
2023-03-21T17:44:15.804Z,14.54
2023-03-21T17:46:46.364Z,14.52
2023-03-21T17:49:16.424Z,14.49
2023-03-21T17:51:47.092Z,14.48
2023-03-21T17:54:15.921Z,14.43
2023-03-21T17:56:44.805Z,14.38
2023-03-21T17:59:14.873Z,14.34
2023-03-21T18:01:45.031Z,14.28
2023-03-21T18:04:13.852Z,14.24
2023-03-21T18:06:42.820Z,14.21
2023-03-21T18:09:12.633Z,14.17
2023-03-21T18:11:41.916Z,14.16
2023-03-21T18:14:17.173Z,14.11
2023-03-21T18:16:50.612Z,14.10
2023-03-21T18:19:19.516Z,14.09
2023-03-21T18:21:48.106Z,14.08
2023-03-21T18:24:17.126Z,14.05
2023-03-21T18:26:46.248Z,14.04
2023-03-21T18:30:17.470Z,14.02
2023-03-21T18:32:08.508Z,14.00
2023-03-21T18:34:39.588Z,13.99
2023-03-21T18:37:09.089Z,13.94
2023-03-21T18:39:38.880Z,13.90
2023-03-21T18:42:14.659Z,13.87
2023-03-21T18:44:47.579Z,13.83
2023-03-21T18:47:20.676Z,13.81
2023-03-21T18:52:38.429Z,13.74
2023-03-21T18:55:09.010Z,13.74
2023-03-21T18:57:39.234Z,13.73
2023-03-21T19:00:13.270Z,13.68
2023-03-21T19:02:47.706Z,13.66
2023-03-21T19:05:18.890Z,13.64
2023-03-21T19:07:48.965Z,13.64
2023-03-21T19:10:20.235Z,13.68
2023-03-21T19:12:49.488Z,13.62
2023-03-21T19:15:19.647Z,13.58
2023-03-21T19:20:44.395Z,13.54
2023-03-21T19:23:13.497Z,13.52
2023-03-21T19:25:43.912Z,13.49
2023-03-21T19:28:12.638Z,13.48
2023-03-21T19:30:49.726Z,13.43
2023-03-21T19:33:21.179Z,13.41
2023-03-21T19:36:08.914Z,13.40
2023-03-21T19:38:40.173Z,13.46
2023-03-21T19:41:08.840Z,13.42
2023-03-21T19:43:39.977Z,13.36
2023-03-21T19:46:11.166Z,13.32
2023-03-21T19:48:43.555Z,13.30
2023-03-21T19:51:27.443Z,13.26
2023-03-21T19:53:57.750Z,13.21
2023-03-21T19:56:27.867Z,13.18
2023-03-21T19:58:57.117Z,13.17
2023-03-21T20:01:26.219Z,13.14
2023-03-21T20:03:56.356Z,13.11
2023-03-21T20:06:25.271Z,13.10
2023-03-21T20:11:43.508Z,13.07
2023-03-21T20:14:12.153Z,13.08
2023-03-21T20:16:43.896Z,13.08
2023-03-21T20:19:16.174Z,13.04
2023-03-21T20:21:53.065Z,13.04
2023-03-21T20:24:25.180Z,13.06
2023-03-21T20:26:55.658Z,13.04
2023-03-21T20:32:13.126Z,12.95
2023-03-21T20:34:44.452Z,12.94
2023-03-21T20:37:13.574Z,12.89
2023-03-21T20:39:42.578Z,12.90
2023-03-21T20:42:11.305Z,12.88
2023-03-21T20:44:58.198Z,12.85
2023-03-21T20:47:28.046Z,12.81
2023-03-21T20:49:58.327Z,12.78
2023-03-21T20:52:57.471Z,12.73
2023-03-21T20:55:17.832Z,12.71
2023-03-21T20:57:48.583Z,12.72
2023-03-21T21:00:21.990Z,12.68
2023-03-21T21:02:51.986Z,12.68
2023-03-21T21:05:28.191Z,12.65
2023-03-21T21:08:00.794Z,12.64
2023-03-21T21:10:29.618Z,12.61
2023-03-21T21:12:58.294Z,12.58
2023-03-21T21:15:27.331Z,12.54
2023-03-21T21:18:08.091Z,12.48
2023-03-21T21:20:39.272Z,12.50
2023-03-21T21:23:09.560Z,12.49
2023-03-21T21:25:39.641Z,12.49
2023-03-21T21:28:09.523Z,12.48
2023-03-21T21:30:41.481Z,12.52
2023-03-21T21:33:10.532Z,12.46
2023-03-21T21:35:46.958Z,12.47
2023-03-21T21:38:17.602Z,12.44
2023-03-21T21:40:46.643Z,12.41
2023-03-21T21:43:17.218Z,12.43
2023-03-21T21:45:45.908Z,12.41
2023-03-21T21:48:14.956Z,12.40
2023-03-21T21:50:47.291Z,12.41
2023-03-21T21:53:19.283Z,12.40
2023-03-21T21:55:48.706Z,12.40
2023-03-21T21:58:19.005Z,12.37
2023-03-21T22:00:52.133Z,12.34
2023-03-21T22:03:22.219Z,12.30
2023-03-21T22:05:54.587Z,12.27
2023-03-21T22:08:23.335Z,12.25
2023-03-21T22:10:52.101Z,12.19
2023-03-21T22:13:20.889Z,12.16
2023-03-21T22:15:49.842Z,12.14
2023-03-21T22:18:19.177Z,12.13
2023-03-21T22:20:47.950Z,12.11
2023-03-21T22:23:19.501Z,12.07
2023-03-21T22:25:52.054Z,12.07
2023-03-21T22:28:22.069Z,12.02
2023-03-21T22:30:55.848Z,12.00
2023-03-21T22:33:25.084Z,11.98
2023-03-21T22:35:54.515Z,11.99
2023-03-21T22:38:24.949Z,12.01
2023-03-21T22:40:57.112Z,11.98
2023-03-21T22:43:26.283Z,11.96
2023-03-21T22:45:55.249Z,11.96
2023-03-21T22:48:24.124Z,11.96
2023-03-21T22:50:52.899Z,11.98
2023-03-21T22:53:22.956Z,11.96
2023-03-21T22:55:53.518Z,11.99
2023-03-21T22:58:22.278Z,11.98
2023-03-21T23:00:51.131Z,11.96
2023-03-21T23:03:20.026Z,11.95
2023-03-21T23:05:48.915Z,11.92
2023-03-21T23:08:17.533Z,11.90
2023-03-21T23:10:47.647Z,11.87
2023-03-21T23:13:16.629Z,11.88
2023-03-21T23:15:45.646Z,11.88
2023-03-21T23:18:14.436Z,11.87
2023-03-21T23:20:43.406Z,11.86
2023-03-21T23:23:12.056Z,11.85
2023-03-21T23:25:42.944Z,11.85
2023-03-21T23:28:12.910Z,11.84
2023-03-21T23:30:41.892Z,11.80
2023-03-21T23:33:11.531Z,11.80
2023-03-21T23:35:40.236Z,11.78
2023-03-21T23:38:09.102Z,11.76
2023-03-21T23:40:40.432Z,11.73
2023-03-21T23:43:09.150Z,11.72
2023-03-21T23:45:39.166Z,11.73
2023-03-21T23:48:07.892Z,11.70
2023-03-21T23:50:36.534Z,11.68
2023-03-21T23:53:05.714Z,11.64
2023-03-21T23:55:34.311Z,11.60
2023-03-21T23:58:05.690Z,11.52
